Time;durP1;ratioP1;P1;durP2;ratioP2;P2;SDS_P1;SDS_P2;PMS_P1;PMS_P2;Temp;Humidity;BMP_temperature;BMP_pressure;BME280_temperature;BME280_humidity;BME280_pressure;Samples;Min_cycle;Max_cycle;Signal;HPM_P1;HPM_P2
2023/10/15 00:06:35;;;;;;;0.53;0.47;;;;;;;;;;20441852;28;20278;-65
2023/10/15 00:16:36;;;;;;;2.03;0.77;;;;;;;;;;20336207;29;20219;-65
2023/10/15 00:26:41;;;;;;;1.83;0.53;;;;;;;;;;20602715;23;20231;-74
2023/10/15 00:36:43;;;;;;;0.90;0.50;;;;;;;;;;20640782;28;20216;-74
2023/10/15 00:46:54;;;;;;;3.43;0.80;;;;;;;;;;20607641;28;20561;-73
2023/10/15 00:56:56;;;;;;;1.47;0.70;;;;;;;;;;20606365;28;20220;-74
2023/10/15 01:07:13;;;;;;;2.47;0.80;;;;;;;;;;20603469;28;20452;-74
2023/10/15 01:17:14;;;;;;;1.20;0.43;;;;;;;;;;20601993;28;20228;-73
2023/10/15 01:27:22;;;;;;;1.50;0.60;;;;;;;;;;20593301;28;20259;-73
2023/10/15 01:37:24;;;;;;;1.90;0.63;;;;;;;;;;20624458;28;20217;-73
2023/10/15 01:47:34;;;;;;;2.13;0.57;;;;;;;;;;20625699;28;20652;-74
2023/10/15 01:57:39;;;;;;;1.57;0.60;;;;;;;;;;20599328;28;20232;-74
2023/10/15 02:07:41;;;;;;;1.40;0.70;;;;;;;;;;20580300;28;20381;-74
2023/10/15 02:17:43;;;;;;;0.90;0.50;;;;;;;;;;20610752;28;20256;-74
2023/10/15 02:27:45;;;;;;;1.87;0.70;;;;;;;;;;20619465;28;20219;-73
2023/10/15 02:37:47;;;;;;;1.03;0.50;;;;;;;;;;20608717;28;20279;-73
2023/10/15 02:47:49;;;;;;;0.93;0.50;;;;;;;;;;20625799;28;20299;-73
2023/10/15 02:57:51;;;;;;;2.13;0.63;;;;;;;;;;20638660;28;20871;-74
2023/10/15 03:07:53;;;;;;;1.17;0.53;;;;;;;;;;20630706;28;20215;-73
2023/10/15 03:17:56;;;;;;;2.73;0.70;;;;;;;;;;20622933;28;20224;-74
2023/10/15 03:28:00;;;;;;;1.93;0.70;;;;;;;;;;20623350;28;20737;-74
2023/10/15 03:38:13;;;;;;;2.03;0.70;;;;;;;;;;20628425;28;20563;-73
2023/10/15 03:48:15;;;;;;;0.93;0.50;;;;;;;;;;20632441;28;20239;-73
2023/10/15 03:58:18;;;;;;;0.87;0.50;;;12.90;99.90;;;;;;20630293;28;20250;-73
2023/10/15 04:08:21;;;;;;;2.13;0.80;;;;;;;;;;20635661;28;20242;-73
2023/10/15 04:18:23;;;;;;;1.03;0.70;;;12.70;99.90;;;;;;20640143;28;20232;-74
2023/10/15 04:28:25;;;;;;;1.63;0.60;;;;;;;;;;20640819;28;20267;-74
2023/10/15 04:38:30;;;;;;;1.47;0.63;;;;;;;;;;20647412;28;20235;-74
2023/10/15 04:48:33;;;;;;;1.50;0.50;;;;;;;;;;20649345;28;20227;-74
2023/10/15 04:58:34;;;;;;;2.03;0.60;;;;;;;;;;20621257;28;20217;-75
2023/10/15 05:08:37;;;;;;;2.13;0.73;;;;;;;;;;20612650;28;20270;-74
2023/10/15 05:18:39;;;;;;;1.50;0.60;;;;;;;;;;20634710;28;20294;-73
2023/10/15 05:28:41;;;;;;;3.27;0.57;;;;;;;;;;20639458;28;20228;-74
2023/10/15 05:38:42;;;;;;;2.47;0.80;;;;;;;;;;20661875;28;20630;-74
2023/10/15 05:48:44;;;;;;;1.00;0.53;;;;;;;;;;20634317;28;20259;-75
2023/10/15 05:58:46;;;;;;;1.07;0.50;;;;;;;;;;20644850;28;20231;-75
2023/10/15 06:08:49;;;;;;;2.17;0.83;;;;;;;;;;20651251;28;20228;-75
2023/10/15 06:18:51;;;;;;;4.10;0.90;;;;;;;;;;20633254;28;20419;-75
2023/10/15 06:28:52;;;;;;;2.73;0.77;;;;;;;;;;20655886;23;20237;-73
2023/10/15 06:38:56;;;;;;;5.17;0.73;;;;;;;;;;20648742;28;20702;-74
2023/10/15 06:48:59;;;;;;;1.60;0.70;;;;;;;;;;20616131;28;20262;-75
2023/10/15 06:59:01;;;;;;;3.57;0.67;;;;;;;;;;20663423;28;20598;-75
2023/10/15 07:09:03;;;;;;;1.27;0.53;;;;;;;;;;20674579;28;20708;-76
2023/10/15 07:19:04;;;;;;;1.37;0.50;;;;;;;;;;20636356;28;20283;-75
2023/10/15 07:29:06;;;;;;;1.67;0.60;;;;;;;;;;20649427;28;20228;-76
2023/10/15 07:39:08;;;;;;;1.20;0.77;;;;;;;;;;20623944;28;20687;-76
2023/10/15 07:49:12;;;;;;;4.17;1.17;;;;;;;;;;20643389;28;20232;-76
2023/10/15 07:59:14;;;;;;;1.13;0.57;;;;;;;;;;20648513;28;20224;-77
2023/10/15 08:09:16;;;;;;;0.80;0.50;;;;;;;;;;20646788;28;20231;-76
2023/10/15 08:19:17;;;;;;;0.40;0.37;;;;;;;;;;20636170;28;20290;-76
2023/10/15 08:29:20;;;;;;;1.20;0.60;;;;;;;;;;20647874;28;20240;-77
2023/10/15 08:39:23;;;;;;;0.57;0.30;;;;;;;;;;20613133;28;20216;-76
2023/10/15 08:49:26;;;;;;;3.53;0.43;;;;;;;;;;20630173;28;20271;-76
2023/10/15 08:59:31;;;;;;;1.47;0.43;;;;;;;;;;20628394;28;20774;-75
2023/10/15 09:09:33;;;;;;;1.53;0.60;;;;;;;;;;20647398;28;20220;-77
2023/10/15 09:19:35;;;;;;;1.23;0.50;;;;;;;;;;20637898;28;20529;-77
2023/10/15 09:29:36;;;;;;;1.17;0.40;;;;;;;;;;20620632;28;20228;-77
2023/10/15 09:39:39;;;;;;;1.23;0.43;;;;;;;;;;20650072;28;20546;-76
2023/10/15 09:49:41;;;;;;;1.13;0.50;;;;;;;;;;20605377;28;20281;-77
2023/10/15 09:59:44;;;;;;;1.37;0.40;;;;;;;;;;20636206;28;20215;-77
2023/10/15 10:09:46;;;;;;;1.13;0.50;;;;;;;;;;20652473;28;20232;-77
2023/10/15 10:19:52;;;;;;;2.07;0.50;;;;;;;;;;20628409;28;20215;-76
2023/10/15 10:29:54;;;;;;;0.50;0.30;;;;;;;;;;20618955;28;20224;-77
2023/10/15 10:39:58;;;;;;;0.90;0.30;;;;;;;;;;20636759;28;20686;-76
2023/10/15 10:50:03;;;;;;;1.10;0.30;;;;;;;;;;20652838;28;20256;-76
2023/10/15 11:00:05;;;;;;;0.93;0.50;;;;;;;;;;20621120;28;20676;-77
2023/10/15 11:10:09;;;;;;;0.30;0.30;;;;;;;;;;20600843;28;20234;-76
2023/10/15 11:20:10;;;;;;;2.33;0.43;;;;;;;;;;20660134;28;20219;-75
2023/10/15 11:30:13;;;;;;;0.40;0.30;;;;;;;;;;20640207;28;20284;-77
2023/10/15 11:40:17;;;;;;;1.03;0.47;;;;;;;;;;20627185;28;20273;-78
2023/10/15 11:50:19;;;;;;;0.33;0.30;;;;;;;;;;20629280;28;20279;-78
2023/10/15 12:00:31;;;;;;;0.20;0.20;;;;;;;;;;20623479;28;20641;-78
2023/10/15 12:10:33;;;;;;;0.97;0.30;;;;;;;;;;20649951;28;20360;-77
2023/10/15 12:20:34;;;;;;;0.67;0.30;;;;;;;;;;20653754;28;20188;-76
2023/10/15 12:30:36;;;;;;;0.20;0.20;;;;;;;;;;20680782;23;20333;-75
2023/10/15 12:40:38;;;;;;;0.57;0.30;;;;;;;;;;20592565;28;20291;-73
2023/10/15 12:50:40;;;;;;;0.30;0.23;;;;;;;;;;20598112;28;20235;-75
2023/10/15 13:00:48;;;;;;;0.30;0.30;;;;;;;;;;20581774;28;20207;-76
2023/10/15 13:10:51;;;;;;;1.77;0.40;;;;;;;;;;20592263;28;20224;-75
2023/10/15 13:20:52;;;;;;;1.23;0.47;;;;;;;;;;20597723;28;20219;-75
2023/10/15 13:30:54;;;;;;;0.60;0.30;;;;;;;;;;20597378;28;20228;-75
2023/10/15 13:40:57;;;;;;;0.70;0.40;;;;;;;;;;20589002;28;20236;-75
2023/10/15 13:51:00;;;;;;;0.30;0.30;;;;;;;;;;20570471;28;20251;-75
2023/10/15 14:01:01;;;;;;;0.97;0.40;;;;;;;;;;20595859;28;20231;-76
2023/10/15 14:11:03;;;;;;;0.87;0.30;;;;;;;;;;20571146;28;20237;-78
2023/10/15 14:21:06;;;;;;;2.80;0.77;;;;;;;;;;20572890;28;20222;-77
2023/10/15 14:31:08;;;;;;;1.57;0.50;;;;;;;;;;20563170;28;20700;-77
2023/10/15 14:41:11;;;;;;;1.40;0.30;;;;;;;;;;20581511;28;20215;-77
2023/10/15 14:51:13;;;;;;;0.60;0.40;;;;;;;;;;20587300;28;20765;-78
2023/10/15 15:01:15;;;;;;;0.50;0.30;;;;;;;;;;20575311;28;20213;-77
2023/10/15 15:11:16;;;;;;;0.90;0.50;;;;;;;;;;20567316;28;20233;-78
2023/10/15 15:21:21;;;;;;;1.50;0.60;;;;;;;;;;20559920;28;20239;-77
2023/10/15 15:31:23;;;;;;;1.33;0.40;;;;;;;;;;20560882;28;20287;-78
2023/10/15 15:41:30;;;;;;;3.77;2.30;;;;;;;;;;20554411;28;20233;-78
2023/10/15 15:51:33;;;;;;;1.40;0.80;;;;;;;;;;20553445;28;20286;-77
2023/10/15 16:01:35;;;;;;;1.03;0.30;;;;;;;;;;20576928;28;20204;-77
2023/10/15 16:11:37;;;;;;;0.50;0.40;;;;;;;;;;20565251;28;20270;-77
2023/10/15 16:21:39;;;;;;;1.10;0.60;;;;;;;;;;20559882;28;20704;-77
2023/10/15 16:31:41;;;;;;;0.73;0.50;;;;;;;;;;20548873;28;20221;-77
2023/10/15 16:41:43;;;;;;;0.70;0.40;;;;;;;;;;20590464;28;20266;-77
2023/10/15 16:51:45;;;;;;;0.80;0.40;;;;;;;;;;20564886;28;20220;-77
2023/10/15 17:01:48;;;;;;;0.67;0.30;;;;;;;;;;20592751;28;20224;-76
2023/10/15 17:11:50;;;;;;;0.57;0.33;;;;;;;;;;20586966;28;20497;-77
2023/10/15 17:21:51;;;;;;;1.30;0.60;;;;;;;;;;20545460;28;20720;-77
2023/10/15 17:31:54;;;;;;;0.83;0.40;;;13.40;99.90;;;;;;20540005;28;20315;-76
2023/10/15 17:41:59;;;;;;;1.10;0.50;;;;;;;;;;20537638;28;20271;-77
2023/10/15 17:52:01;;;;;;;0.93;0.40;;;;;;;;;;20587325;28;20244;-77
2023/10/15 18:02:02;;;;;;;0.57;0.30;;;;;;;;;;20579326;28;20220;-77
2023/10/15 18:12:05;;;;;;;1.33;0.47;;;13.20;99.90;;;;;;20585639;28;20232;-77
2023/10/15 18:22:08;;;;;;;1.50;0.47;;;;;;;;;;20536785;28;20648;-76
2023/10/15 18:32:10;;;;;;;1.40;0.40;;;;;;;;;;20548990;28;20268;-76
2023/10/15 18:42:14;;;;;;;1.37;0.60;;;;;;;;;;20539215;28;20692;-76
2023/10/15 18:52:17;;;;;;;1.03;0.50;;;;;;;;;;20571329;28;20228;-77
2023/10/15 19:02:18;;;;;;;0.60;0.40;;;;;;;;;;20686237;23;20287;-87
2023/10/15 19:12:20;;;;;;;0.67;0.40;;;;;;;;;;20657711;28;20239;-86
2023/10/15 19:22:23;;;;;;;1.20;0.50;;;;;;;;;;20660547;28;20236;-86
2023/10/15 19:32:26;;;;;;;1.93;0.60;;;;;;;;;;20641838;28;20232;-86
2023/10/15 19:42:28;;;;;;;1.10;0.40;;;;;;;;;;20687233;28;20232;-87
2023/10/15 19:52:30;;;;;;;1.67;0.50;;;;;;;;;;20653797;28;20254;-86
2023/10/15 20:02:38;;;;;;;2.53;0.50;;;;;;;;;;20631563;28;20227;-86
2023/10/15 20:12:48;;;;;;;2.37;0.40;;;;;;;;;;20684584;28;20262;-86
2023/10/15 20:23:21;;;;;;;0.87;0.53;;;;;;;;;;20676769;28;20200;-87
2023/10/15 20:33:24;;;;;;;0.93;0.40;;;;;;;;;;20643481;28;20717;-87
2023/10/15 20:43:26;;;;;;;0.93;0.50;;;;;;;;;;20661591;28;20220;-86
2023/10/15 20:53:28;;;;;;;2.70;0.50;;;;;;;;;;20618600;28;20298;-87
2023/10/15 21:03:29;;;;;;;0.90;0.43;;;;;;;;;;20635079;28;20228;-88
2023/10/15 21:13:31;;;;;;;1.47;0.50;;;;;;;;;;20603145;28;20236;-88
2023/10/15 21:23:33;;;;;;;1.67;0.53;;;;;;;;;;20649838;28;20271;-85
2023/10/15 21:33:35;;;;;;;2.63;0.50;;;;;;;;;;20624721;28;20298;-85
2023/10/15 21:43:37;;;;;;;0.93;0.40;;;;;;;;;;20644501;28;20628;-85
2023/10/15 21:53:39;;;;;;;1.63;0.57;;;;;;;;;;20666314;28;20257;-86
2023/10/15 22:03:41;;;;;;;1.50;0.67;;;;;;;;;;20690333;28;20239;-86
2023/10/15 22:13:42;;;;;;;1.27;0.53;;;;;;;;;;20654254;28;20278;-86
2023/10/15 22:23:47;;;;;;;2.90;0.80;;;;;;;;;;20635264;28;20255;-87
2023/10/15 22:33:49;;;;;;;1.23;0.70;;;;;;;;;;20677361;28;20717;-84
2023/10/15 22:43:51;;;;;;;1.30;0.70;;;;;;;;;;20641874;28;20220;-86
2023/10/15 22:53:53;;;;;;;1.43;0.80;;;;;;;;;;20624980;28;20227;-86
2023/10/15 23:03:54;;;;;;;1.50;0.77;;;;;;;;;;20624138;28;20227;-86
2023/10/15 23:13:58;;;;;;;1.13;0.60;;;;;;;;;;20681951;28;20219;-87
2023/10/15 23:23:59;;;;;;;1.50;0.47;;;;;;;;;;20604641;28;20224;-85
2023/10/15 23:34:03;;;;;;;1.10;0.67;;;;;;;;;;20658386;28;20219;-85
2023/10/15 23:44:08;;;;;;;0.87;0.40;;;;;;;;;;20670439;28;20278;-86
2023/10/15 23:54:14;;;;;;;0.60;0.43;;;;;;;;;;20634859;28;20681;-86
